MSR799 HECA-LFPG
Flight info
| Callsign | MSR799 |
|---|---|
| Flight time | 4h 22m |
| Altitude | 40000 |
| Route | CVO L617 NABSI M872 METRU UM872 LATAN DCT PES DCT LOMED DCT AOSTA DCT ORSUD DCT MOLUS DCT UNKIR/N0482F380 DCT GIVRI/N0484F360 DCT TINIL |
| Aircraft | A359/H-SDE2E3GHIJ3J4J5LM1ORWXY/LB1D1 |
Departure
| Time | 2026-05-08 13:16 |
|---|---|
| Airport | Cairo International Airport (HECA) |
Arrival
| Time | 2026-05-08 17:39 |
|---|---|
| Airport | Charles de Gaulle International Airport (LFPG) |
| Time | Latitude | Longitude | Altitude | Speed | Heading |
|---|---|---|---|---|---|
| 2026-05-08 12:48 | 30.10871 | 31.39666 | 381 ft | 0 kts | 255° |
| 2026-05-08 13:05 | 30.10872 | 31.39666 | 380 ft | 1 kts | 255° |
| 2026-05-08 13:06 | 30.10880 | 31.39693 | 380 ft | 4 kts | 237° |
| 2026-05-08 13:06 | 30.10898 | 31.39716 | 380 ft | 4 kts | 214° |
| 2026-05-08 13:06 | 30.10921 | 31.39729 | 380 ft | 4 kts | 193° |
| 2026-05-08 13:06 | 30.10948 | 31.39732 | 380 ft | 4 kts | 169° |
| 2026-05-08 13:07 | 30.10954 | 31.39730 | 380 ft | 0 kts | 165° |
| 2026-05-08 13:09 | 30.10950 | 31.39731 | 380 ft | 0 kts | 166° |
| 2026-05-08 13:10 | 30.10857 | 31.39760 | 380 ft | 28 kts | 164° |
| 2026-05-08 13:10 | 30.10670 | 31.39817 | 380 ft | 21 kts | 164° |
| 2026-05-08 13:10 | 30.10628 | 31.39830 | 380 ft | 0 kts | 166° |
| 2026-05-08 13:12 | 30.10617 | 31.39833 | 380 ft | 8 kts | 165° |
| 2026-05-08 13:12 | 30.10505 | 31.39868 | 380 ft | 23 kts | 166° |
| 2026-05-08 13:13 | 30.10358 | 31.39788 | 380 ft | 31 kts | 231° |
| 2026-05-08 13:13 | 30.10209 | 31.39601 | 380 ft | 19 kts | 214° |
| 2026-05-08 13:13 | 30.10081 | 31.39640 | 380 ft | 23 kts | 142° |
| 2026-05-08 13:13 | 30.10044 | 31.39677 | 380 ft | 0 kts | 136° |
| 2026-05-08 13:15 | 30.10037 | 31.39684 | 380 ft | 7 kts | 136° |
| 2026-05-08 13:15 | 30.09999 | 31.39800 | 380 ft | 23 kts | 100° |
| 2026-05-08 13:15 | 30.10020 | 31.39892 | 377 ft | 0 kts | 51° |
| 2026-05-08 13:15 | 30.10044 | 31.39926 | 376 ft | 0 kts | 49° |
| 2026-05-08 13:16 | 30.10115 | 31.40019 | 378 ft | 48 kts | 48° |
| 2026-05-08 13:16 | 30.10484 | 31.40505 | 385 ft | 112 kts | 49° |
| 2026-05-08 13:16 | 30.11117 | 31.41354 | 418 ft | 162 kts | 47° |
| 2026-05-08 13:16 | 30.11775 | 31.42278 | 1390 ft | 139 kts | 46° |
| 2026-05-08 13:17 | 30.12423 | 31.43087 | 2074 ft | 135 kts | 42° |
| 2026-05-08 13:17 | 30.13059 | 31.43841 | 2661 ft | 130 kts | 45° |
| 2026-05-08 13:17 | 30.13738 | 31.44496 | 3148 ft | 129 kts | 18° |
| 2026-05-08 13:17 | 30.14603 | 31.44250 | 3630 ft | 134 kts | 331° |
| 2026-05-08 13:18 | 30.15387 | 31.43662 | 4099 ft | 134 kts | 330° |
| 2026-05-08 13:18 | 30.16119 | 31.43010 | 4542 ft | 134 kts | 327° |
| 2026-05-08 13:18 | 30.16823 | 31.42299 | 4978 ft | 134 kts | 324° |
| 2026-05-08 13:18 | 30.17504 | 31.41557 | 5426 ft | 135 kts | 321° |
| 2026-05-08 13:19 | 30.18170 | 31.40791 | 5861 ft | 136 kts | 320° |
| 2026-05-08 13:19 | 30.18827 | 31.40010 | 6340 ft | 134 kts | 320° |
| 2026-05-08 13:19 | 30.19476 | 31.39231 | 6776 ft | 134 kts | 320° |
| 2026-05-08 13:19 | 30.19893 | 31.38693 | 7047 ft | 136 kts | 315° |
| 2026-05-08 13:20 | 30.20683 | 31.37546 | 7618 ft | 137 kts | 311° |
| 2026-05-08 13:20 | 30.21219 | 31.36632 | 8109 ft | 138 kts | 310° |
| 2026-05-08 13:20 | 30.21579 | 31.36004 | 8413 ft | 139 kts | 309° |
| 2026-05-08 13:20 | 30.22124 | 31.35078 | 8873 ft | 139 kts | 310° |
| 2026-05-08 13:21 | 30.22712 | 31.34203 | 9312 ft | 138 kts | 317° |
| 2026-05-08 13:21 | 30.23359 | 31.33384 | 9682 ft | 143 kts | 317° |
| 2026-05-08 13:21 | 30.24082 | 31.32508 | 9974 ft | 159 kts | 317° |
| 2026-05-08 13:21 | 30.24891 | 31.31545 | 10248 ft | 175 kts | 317° |
| 2026-05-08 13:22 | 30.25788 | 31.30484 | 10575 ft | 193 kts | 317° |
| 2026-05-08 13:22 | 30.26773 | 31.29320 | 10876 ft | 212 kts | 317° |
| 2026-05-08 13:22 | 30.27856 | 31.28035 | 11178 ft | 233 kts | 316° |
| 2026-05-08 13:22 | 30.29038 | 31.26631 | 11569 ft | 252 kts | 316° |
| 2026-05-08 13:23 | 30.30305 | 31.25123 | 11988 ft | 270 kts | 316° |
| 2026-05-08 13:23 | 30.31638 | 31.23538 | 12408 ft | 287 kts | 316° |
| 2026-05-08 13:23 | 30.33070 | 31.21833 | 12856 ft | 303 kts | 316° |
| 2026-05-08 13:23 | 30.34579 | 31.20036 | 13299 ft | 318 kts | 315° |
| 2026-05-08 13:24 | 30.36162 | 31.18150 | 13740 ft | 333 kts | 315° |
| 2026-05-08 13:24 | 30.37787 | 31.16213 | 14129 ft | 346 kts | 315° |
| 2026-05-08 13:24 | 30.39488 | 31.14185 | 14630 ft | 354 kts | 315° |
| 2026-05-08 13:24 | 30.41213 | 31.12125 | 15219 ft | 358 kts | 315° |
| 2026-05-08 13:25 | 30.42967 | 31.10032 | 15801 ft | 362 kts | 315° |
| 2026-05-08 13:25 | 30.44737 | 31.07922 | 16409 ft | 366 kts | 315° |
| 2026-05-08 13:25 | 30.46494 | 31.05825 | 17028 ft | 369 kts | 315° |
| 2026-05-08 13:25 | 30.48296 | 31.03670 | 17656 ft | 372 kts | 315° |
| 2026-05-08 13:26 | 30.50107 | 31.01504 | 18271 ft | 376 kts | 315° |
| 2026-05-08 13:26 | 30.51937 | 30.99314 | 18826 ft | 379 kts | 315° |
| 2026-05-08 13:26 | 30.53783 | 30.97105 | 19382 ft | 382 kts | 315° |
| 2026-05-08 13:26 | 30.55638 | 30.94884 | 19936 ft | 385 kts | 315° |
| 2026-05-08 13:27 | 30.57490 | 30.92664 | 20521 ft | 387 kts | 314° |
| 2026-05-08 13:27 | 30.59377 | 30.90402 | 21083 ft | 390 kts | 314° |
| 2026-05-08 13:27 | 30.61271 | 30.88130 | 21647 ft | 393 kts | 314° |
| 2026-05-08 13:27 | 30.63184 | 30.85833 | 22204 ft | 396 kts | 314° |
| 2026-05-08 13:28 | 30.65087 | 30.83548 | 22762 ft | 399 kts | 314° |
| 2026-05-08 13:28 | 30.67020 | 30.81226 | 23323 ft | 402 kts | 314° |
| 2026-05-08 13:28 | 30.68970 | 30.78880 | 23849 ft | 405 kts | 314° |
| 2026-05-08 13:28 | 30.70940 | 30.76510 | 24333 ft | 408 kts | 314° |
| 2026-05-08 13:29 | 30.72899 | 30.74151 | 24839 ft | 410 kts | 314° |
| 2026-05-08 13:29 | 30.74894 | 30.71748 | 25363 ft | 413 kts | 314° |
| 2026-05-08 13:29 | 30.76900 | 30.69330 | 25878 ft | 415 kts | 314° |
| 2026-05-08 13:29 | 30.78925 | 30.66888 | 26399 ft | 418 kts | 314° |
| 2026-05-08 13:30 | 30.80925 | 30.64473 | 26901 ft | 421 kts | 314° |
| 2026-05-08 13:30 | 30.82962 | 30.62013 | 27437 ft | 423 kts | 314° |
| 2026-05-08 13:30 | 30.85007 | 30.59540 | 27958 ft | 425 kts | 314° |
| 2026-05-08 13:30 | 30.87075 | 30.57039 | 28453 ft | 428 kts | 314° |
| 2026-05-08 13:31 | 30.89123 | 30.54560 | 28923 ft | 430 kts | 314° |
| 2026-05-08 13:31 | 30.91207 | 30.52036 | 29376 ft | 434 kts | 314° |
| 2026-05-08 13:31 | 30.93306 | 30.49493 | 29840 ft | 436 kts | 314° |
| 2026-05-08 13:31 | 30.95412 | 30.46940 | 30279 ft | 439 kts | 314° |
| 2026-05-08 13:32 | 30.97533 | 30.44367 | 30687 ft | 441 kts | 314° |
| 2026-05-08 13:32 | 30.99666 | 30.41776 | 31086 ft | 443 kts | 314° |
| 2026-05-08 13:32 | 31.01805 | 30.39177 | 31468 ft | 444 kts | 314° |
| 2026-05-08 13:32 | 31.03953 | 30.36565 | 31802 ft | 447 kts | 313° |
| 2026-05-08 13:33 | 31.06101 | 30.33913 | 32150 ft | 449 kts | 311° |
| 2026-05-08 13:33 | 31.08006 | 30.31074 | 32487 ft | 451 kts | 304° |
| 2026-05-08 13:33 | 31.09586 | 30.27895 | 32838 ft | 453 kts | 297° |
| 2026-05-08 13:33 | 31.10831 | 30.24512 | 33195 ft | 454 kts | 292° |
| 2026-05-08 13:34 | 31.11875 | 30.21027 | 33679 ft | 453 kts | 290° |
| 2026-05-08 13:34 | 31.12814 | 30.17531 | 34148 ft | 451 kts | 289° |
| 2026-05-08 13:34 | 31.13721 | 30.14013 | 34548 ft | 449 kts | 289° |
| 2026-05-08 13:34 | 31.14622 | 30.10522 | 34909 ft | 448 kts | 289° |
| 2026-05-08 13:35 | 31.15525 | 30.07077 | 35279 ft | 446 kts | 289° |
| 2026-05-08 13:35 | 31.16445 | 30.03618 | 35665 ft | 444 kts | 289° |
| 2026-05-08 13:35 | 31.17373 | 30.00174 | 36015 ft | 443 kts | 289° |
| 2026-05-08 13:35 | 31.18432 | 29.96802 | 36351 ft | 440 kts | 295° |
| 2026-05-08 13:36 | 31.19823 | 29.93638 | 36690 ft | 438 kts | 302° |
| 2026-05-08 13:36 | 31.21518 | 29.90664 | 37004 ft | 436 kts | 305° |
| 2026-05-08 13:36 | 31.23253 | 29.87818 | 37302 ft | 435 kts | 306° |
| 2026-05-08 13:36 | 31.25033 | 29.84965 | 37622 ft | 434 kts | 306° |
| 2026-05-08 13:37 | 31.26818 | 29.82129 | 37931 ft | 432 kts | 306° |
| 2026-05-08 13:37 | 31.28602 | 29.79297 | 38311 ft | 430 kts | 306° |
| 2026-05-08 13:37 | 31.30369 | 29.76482 | 38713 ft | 426 kts | 306° |
| 2026-05-08 13:37 | 31.32093 | 29.73725 | 38969 ft | 424 kts | 306° |
| 2026-05-08 13:38 | 31.33852 | 29.70904 | 39124 ft | 425 kts | 306° |
| 2026-05-08 13:38 | 31.35573 | 29.68139 | 39262 ft | 426 kts | 306° |
| 2026-05-08 13:38 | 31.37321 | 29.65325 | 39428 ft | 426 kts | 306° |
| 2026-05-08 13:38 | 31.39072 | 29.62504 | 39579 ft | 426 kts | 306° |
| 2026-05-08 13:39 | 31.40816 | 29.59693 | 39731 ft | 426 kts | 306° |
| 2026-05-08 13:39 | 31.42541 | 29.56910 | 39883 ft | 427 kts | 306° |
| 2026-05-08 13:39 | 31.44306 | 29.54062 | 40021 ft | 427 kts | 306° |
| 2026-05-08 13:39 | 31.46029 | 29.51278 | 40118 ft | 428 kts | 305° |
| 2026-05-08 13:40 | 31.49530 | 29.45618 | 40131 ft | 428 kts | 305° |
| 2026-05-08 13:40 | 31.53028 | 29.39955 | 40134 ft | 427 kts | 305° |
| 2026-05-08 13:41 | 31.56496 | 29.34333 | 40129 ft | 427 kts | 305° |
| 2026-05-08 13:41 | 31.59965 | 29.28699 | 40129 ft | 427 kts | 305° |
| 2026-05-08 13:42 | 31.63446 | 29.23024 | 40132 ft | 427 kts | 304° |
| 2026-05-08 13:42 | 31.66920 | 29.17346 | 40132 ft | 427 kts | 304° |
| 2026-05-08 13:43 | 31.70357 | 29.11723 | 40129 ft | 426 kts | 304° |
| 2026-05-08 13:43 | 31.73815 | 29.06058 | 40129 ft | 425 kts | 304° |
| 2026-05-08 13:44 | 31.77252 | 29.00413 | 40132 ft | 425 kts | 304° |
| 2026-05-08 13:44 | 31.80709 | 28.94743 | 40127 ft | 426 kts | 304° |
| 2026-05-08 13:45 | 31.84146 | 28.89096 | 40132 ft | 428 kts | 304° |
| 2026-05-08 13:45 | 31.87626 | 28.83366 | 40135 ft | 428 kts | 304° |
| 2026-05-08 13:46 | 31.91071 | 28.77685 | 40135 ft | 428 kts | 304° |
| 2026-05-08 13:46 | 31.94545 | 28.71948 | 40136 ft | 428 kts | 304° |
| 2026-05-08 13:47 | 31.97985 | 28.66258 | 40131 ft | 428 kts | 303° |
| 2026-05-08 13:47 | 32.01463 | 28.60496 | 40136 ft | 431 kts | 303° |
| 2026-05-08 13:48 | 32.04928 | 28.54746 | 40138 ft | 433 kts | 303° |
| 2026-05-08 13:48 | 32.08407 | 28.48966 | 40137 ft | 433 kts | 303° |
| 2026-05-08 13:49 | 32.11905 | 28.43146 | 40137 ft | 432 kts | 303° |
| 2026-05-08 13:49 | 32.15351 | 28.37404 | 40137 ft | 431 kts | 303° |
| 2026-05-08 13:50 | 32.18817 | 28.31618 | 40138 ft | 431 kts | 303° |
| 2026-05-08 13:50 | 32.22268 | 28.25849 | 40140 ft | 431 kts | 303° |
| 2026-05-08 13:51 | 32.25731 | 28.20051 | 40141 ft | 431 kts | 303° |
| 2026-05-08 13:51 | 32.29188 | 28.14253 | 40143 ft | 431 kts | 303° |
| 2026-05-08 13:52 | 32.32640 | 28.08456 | 40144 ft | 431 kts | 303° |
| 2026-05-08 13:52 | 32.36088 | 28.02657 | 40143 ft | 430 kts | 303° |
| 2026-05-08 13:53 | 32.39505 | 27.96901 | 40140 ft | 429 kts | 303° |
| 2026-05-08 13:53 | 32.42939 | 27.91107 | 40140 ft | 429 kts | 303° |
| 2026-05-08 13:54 | 32.46353 | 27.85340 | 40140 ft | 429 kts | 303° |
| 2026-05-08 13:54 | 32.49768 | 27.79560 | 40158 ft | 429 kts | 303° |
| 2026-05-08 13:55 | 32.53194 | 27.73754 | 40145 ft | 429 kts | 303° |
| 2026-05-08 13:56 | 32.58301 | 27.65082 | 40140 ft | 428 kts | 303° |
| 2026-05-08 13:56 | 32.61713 | 27.59277 | 40144 ft | 428 kts | 303° |
| 2026-05-08 13:57 | 32.65110 | 27.53487 | 40145 ft | 428 kts | 303° |
| 2026-05-08 13:57 | 32.68518 | 27.47673 | 40146 ft | 428 kts | 303° |
| 2026-05-08 13:58 | 32.71905 | 27.41884 | 40153 ft | 428 kts | 302° |
| 2026-05-08 13:58 | 32.75306 | 27.36051 | 40149 ft | 429 kts | 302° |
| 2026-05-08 13:59 | 32.78674 | 27.30256 | 40147 ft | 428 kts | 302° |
| 2026-05-08 13:59 | 32.82067 | 27.24412 | 40149 ft | 429 kts | 302° |
| 2026-05-08 14:00 | 32.85447 | 27.18582 | 40151 ft | 429 kts | 302° |
| 2026-05-08 14:00 | 32.88817 | 27.12763 | 40155 ft | 429 kts | 302° |
| 2026-05-08 14:01 | 32.92209 | 27.06896 | 40147 ft | 429 kts | 302° |
| 2026-05-08 14:01 | 32.95590 | 27.01039 | 40149 ft | 429 kts | 302° |
| 2026-05-08 14:02 | 32.98961 | 26.95192 | 40148 ft | 429 kts | 302° |
| 2026-05-08 14:02 | 33.02338 | 26.89312 | 40150 ft | 430 kts | 302° |
| 2026-05-08 14:03 | 33.05717 | 26.83412 | 40148 ft | 430 kts | 302° |
| 2026-05-08 14:03 | 33.09075 | 26.77541 | 40152 ft | 431 kts | 302° |
| 2026-05-08 14:04 | 33.12458 | 26.71622 | 40146 ft | 431 kts | 302° |
| 2026-05-08 14:04 | 33.15823 | 26.65725 | 40151 ft | 431 kts | 302° |
| 2026-05-08 14:05 | 33.19206 | 26.59787 | 40149 ft | 431 kts | 302° |
| 2026-05-08 14:05 | 33.22586 | 26.53843 | 40150 ft | 432 kts | 301° |
| 2026-05-08 14:06 | 33.25953 | 26.47911 | 40146 ft | 434 kts | 301° |
| 2026-05-08 14:06 | 33.29350 | 26.41920 | 40158 ft | 435 kts | 301° |
| 2026-05-08 14:07 | 33.32722 | 26.35963 | 40149 ft | 434 kts | 301° |
| 2026-05-08 14:07 | 33.35545 | 26.30968 | 40148 ft | 434 kts | 301° |
| 2026-05-08 14:08 | 33.38913 | 26.24999 | 40152 ft | 434 kts | 301° |
| 2026-05-08 14:08 | 33.42297 | 26.18992 | 40148 ft | 435 kts | 301° |
| 2026-05-08 14:09 | 33.45660 | 26.13012 | 40149 ft | 435 kts | 301° |
| 2026-05-08 14:09 | 33.49036 | 26.07001 | 40151 ft | 435 kts | 301° |
| 2026-05-08 14:10 | 33.52415 | 26.00975 | 40153 ft | 435 kts | 301° |
| 2026-05-08 14:10 | 33.55776 | 25.94970 | 40148 ft | 435 kts | 301° |
| 2026-05-08 14:11 | 33.59152 | 25.88926 | 40151 ft | 436 kts | 301° |
| 2026-05-08 14:11 | 33.62530 | 25.82871 | 40152 ft | 436 kts | 301° |
| 2026-05-08 14:12 | 33.65893 | 25.76834 | 40155 ft | 436 kts | 301° |
| 2026-05-08 14:12 | 33.69261 | 25.70776 | 40150 ft | 436 kts | 301° |
| 2026-05-08 14:13 | 33.72637 | 25.64695 | 40148 ft | 436 kts | 301° |
| 2026-05-08 14:13 | 33.75975 | 25.58673 | 40146 ft | 433 kts | 301° |
| 2026-05-08 14:14 | 33.79306 | 25.52652 | 40147 ft | 431 kts | 301° |
| 2026-05-08 14:14 | 33.82625 | 25.46641 | 40148 ft | 431 kts | 301° |
| 2026-05-08 14:15 | 33.85935 | 25.40638 | 40147 ft | 431 kts | 301° |
| 2026-05-08 14:15 | 33.89234 | 25.34644 | 40146 ft | 431 kts | 301° |
| 2026-05-08 14:16 | 33.95771 | 25.22742 | 40137 ft | 429 kts | 301° |
| 2026-05-08 14:17 | 33.99074 | 25.16798 | 40139 ft | 430 kts | 303° |
| 2026-05-08 14:17 | 34.03133 | 25.11426 | 40138 ft | 434 kts | 311° |
| 2026-05-08 14:18 | 34.07467 | 25.06404 | 40171 ft | 434 kts | 313° |
| 2026-05-08 14:18 | 34.11858 | 25.01401 | 40143 ft | 433 kts | 313° |
| 2026-05-08 14:19 | 34.16233 | 24.96399 | 40135 ft | 430 kts | 312° |
| 2026-05-08 14:19 | 34.20538 | 24.91451 | 40138 ft | 429 kts | 312° |
| 2026-05-08 14:20 | 34.24871 | 24.86455 | 40136 ft | 429 kts | 311° |
| 2026-05-08 14:20 | 34.29174 | 24.81486 | 40137 ft | 429 kts | 311° |
| 2026-05-08 14:21 | 34.33477 | 24.76511 | 40133 ft | 429 kts | 311° |
| 2026-05-08 14:21 | 34.37797 | 24.71511 | 40133 ft | 429 kts | 311° |
| 2026-05-08 14:22 | 34.42116 | 24.66504 | 40138 ft | 428 kts | 311° |
| 2026-05-08 14:22 | 34.46423 | 24.61503 | 40127 ft | 428 kts | 311° |
| 2026-05-08 14:23 | 34.50694 | 24.56537 | 40124 ft | 427 kts | 311° |
| 2026-05-08 14:23 | 34.54962 | 24.51524 | 40123 ft | 427 kts | 310° |
| 2026-05-08 14:24 | 34.59160 | 24.46392 | 40123 ft | 427 kts | 310° |
| 2026-05-08 14:24 | 34.63309 | 24.41297 | 40127 ft | 427 kts | 310° |
| 2026-05-08 14:25 | 34.67510 | 24.36163 | 40124 ft | 427 kts | 310° |
| 2026-05-08 14:25 | 34.71677 | 24.31081 | 40137 ft | 427 kts | 310° |
| 2026-05-08 14:26 | 34.75873 | 24.25959 | 40124 ft | 426 kts | 310° |
| 2026-05-08 14:26 | 34.80067 | 24.20829 | 40128 ft | 426 kts | 310° |
| 2026-05-08 14:27 | 34.84228 | 24.15731 | 40125 ft | 426 kts | 310° |
| 2026-05-08 14:27 | 34.88391 | 24.10623 | 40128 ft | 426 kts | 310° |
| 2026-05-08 14:28 | 34.92570 | 24.05487 | 40129 ft | 426 kts | 309° |
| 2026-05-08 14:28 | 34.96751 | 24.00344 | 40125 ft | 426 kts | 309° |
| 2026-05-08 14:29 | 35.00895 | 23.95231 | 40120 ft | 425 kts | 309° |
| 2026-05-08 14:29 | 35.05053 | 23.90088 | 40126 ft | 425 kts | 309° |
| 2026-05-08 14:30 | 35.09206 | 23.84946 | 40120 ft | 424 kts | 309° |
| 2026-05-08 14:30 | 35.13323 | 23.79840 | 40119 ft | 424 kts | 309° |
| 2026-05-08 14:31 | 35.17468 | 23.74691 | 40114 ft | 424 kts | 309° |
| 2026-05-08 14:31 | 35.21577 | 23.69580 | 40108 ft | 424 kts | 308° |
| 2026-05-08 14:32 | 35.28059 | 23.62226 | 40113 ft | 428 kts | 314° |
| 2026-05-08 14:32 | 35.32665 | 23.57598 | 40099 ft | 428 kts | 314° |
| 2026-05-08 14:33 | 35.37211 | 23.52934 | 40097 ft | 428 kts | 313° |
| 2026-05-08 14:33 | 35.41739 | 23.48185 | 40094 ft | 427 kts | 312° |
| 2026-05-08 14:34 | 35.46232 | 23.43439 | 40086 ft | 427 kts | 312° |
| 2026-05-08 14:34 | 35.50751 | 23.38661 | 40086 ft | 427 kts | 312° |
| 2026-05-08 14:35 | 35.55233 | 23.33919 | 40083 ft | 427 kts | 312° |
| 2026-05-08 14:35 | 35.59746 | 23.29138 | 40078 ft | 427 kts | 312° |
| 2026-05-08 14:36 | 35.64225 | 23.24386 | 40079 ft | 427 kts | 312° |
| 2026-05-08 14:36 | 35.68725 | 23.19604 | 40078 ft | 428 kts | 312° |
| 2026-05-08 14:37 | 35.73246 | 23.14793 | 40078 ft | 428 kts | 312° |
| 2026-05-08 14:37 | 35.77729 | 23.10016 | 40075 ft | 428 kts | 312° |
| 2026-05-08 14:38 | 35.82244 | 23.05195 | 40072 ft | 430 kts | 312° |
| 2026-05-08 14:38 | 35.86771 | 23.00358 | 40072 ft | 431 kts | 312° |
| 2026-05-08 14:39 | 35.91308 | 22.95509 | 40073 ft | 431 kts | 312° |
| 2026-05-08 14:39 | 35.95845 | 22.90648 | 40073 ft | 433 kts | 313° |
| 2026-05-08 14:40 | 36.00386 | 22.85775 | 40070 ft | 435 kts | 313° |
| 2026-05-08 14:40 | 36.04966 | 22.80856 | 40069 ft | 435 kts | 313° |
| 2026-05-08 14:41 | 36.09513 | 22.75964 | 40070 ft | 436 kts | 313° |
| 2026-05-08 14:41 | 36.14082 | 22.71039 | 40064 ft | 437 kts | 313° |
| 2026-05-08 14:42 | 36.18680 | 22.66075 | 40064 ft | 437 kts | 313° |
| 2026-05-08 14:42 | 36.23242 | 22.61142 | 40064 ft | 437 kts | 313° |
| 2026-05-08 14:43 | 36.27830 | 22.56174 | 40067 ft | 437 kts | 313° |
| 2026-05-08 14:43 | 36.32390 | 22.51227 | 40067 ft | 437 kts | 313° |
| 2026-05-08 14:44 | 36.36963 | 22.46258 | 40070 ft | 437 kts | 312° |
| 2026-05-08 14:44 | 36.41559 | 22.41254 | 40067 ft | 438 kts | 312° |
| 2026-05-08 14:45 | 36.46128 | 22.36273 | 40067 ft | 439 kts | 312° |
| 2026-05-08 14:45 | 36.50701 | 22.31279 | 40074 ft | 439 kts | 313° |
| 2026-05-08 14:46 | 36.55303 | 22.26244 | 40068 ft | 442 kts | 313° |
| 2026-05-08 14:46 | 36.59934 | 22.21170 | 40067 ft | 442 kts | 313° |
| 2026-05-08 14:47 | 36.64531 | 22.16127 | 40066 ft | 443 kts | 313° |
| 2026-05-08 14:47 | 36.69170 | 22.11028 | 40071 ft | 443 kts | 313° |
| 2026-05-08 14:48 | 36.73766 | 22.05967 | 40066 ft | 444 kts | 313° |
| 2026-05-08 14:48 | 36.78408 | 22.00847 | 40067 ft | 444 kts | 313° |
| 2026-05-08 14:49 | 36.83025 | 21.95747 | 40071 ft | 445 kts | 313° |
| 2026-05-08 14:49 | 36.87674 | 21.90602 | 40069 ft | 446 kts | 313° |
| 2026-05-08 14:50 | 36.92314 | 21.85459 | 40072 ft | 446 kts | 313° |
| 2026-05-08 14:50 | 36.96923 | 21.80344 | 40070 ft | 446 kts | 313° |
| 2026-05-08 14:51 | 37.01571 | 21.75173 | 40060 ft | 447 kts | 313° |
| 2026-05-08 14:51 | 37.06204 | 21.70010 | 40052 ft | 447 kts | 313° |
| 2026-05-08 14:52 | 37.13140 | 21.62267 | 40054 ft | 446 kts | 313° |
| 2026-05-08 14:53 | 37.17752 | 21.57106 | 40052 ft | 445 kts | 313° |
| 2026-05-08 14:53 | 37.22382 | 21.51917 | 40039 ft | 445 kts | 313° |
| 2026-05-08 14:54 | 37.26978 | 21.46756 | 40036 ft | 445 kts | 313° |
| 2026-05-08 14:54 | 37.31598 | 21.41560 | 40035 ft | 445 kts | 313° |
| 2026-05-08 14:55 | 37.36214 | 21.36359 | 40027 ft | 445 kts | 313° |
| 2026-05-08 14:55 | 37.40799 | 21.31186 | 40027 ft | 443 kts | 313° |
| 2026-05-08 14:56 | 37.45381 | 21.26008 | 40020 ft | 442 kts | 313° |
| 2026-05-08 14:56 | 37.49964 | 21.20817 | 40020 ft | 441 kts | 313° |
| 2026-05-08 14:57 | 37.54505 | 21.15665 | 40027 ft | 441 kts | 313° |
| 2026-05-08 14:57 | 37.59073 | 21.10474 | 40039 ft | 440 kts | 313° |
| 2026-05-08 14:58 | 37.63592 | 21.05333 | 40039 ft | 437 kts | 313° |
| 2026-05-08 14:58 | 37.68092 | 21.00202 | 40036 ft | 437 kts | 312° |
| 2026-05-08 14:59 | 37.72606 | 20.95043 | 40038 ft | 437 kts | 312° |
| 2026-05-08 14:59 | 37.79335 | 20.87341 | 40056 ft | 436 kts | 312° |
| 2026-05-08 15:00 | 37.83818 | 20.82197 | 40034 ft | 436 kts | 312° |
| 2026-05-08 15:00 | 37.88319 | 20.77025 | 40029 ft | 436 kts | 312° |
| 2026-05-08 15:01 | 37.92813 | 20.71853 | 40026 ft | 437 kts | 312° |
| 2026-05-08 15:01 | 37.96557 | 20.67537 | 40030 ft | 437 kts | 312° |
| 2026-05-08 15:02 | 38.01788 | 20.61496 | 40020 ft | 437 kts | 312° |
| 2026-05-08 15:02 | 38.05528 | 20.57170 | 40020 ft | 437 kts | 312° |
| 2026-05-08 15:03 | 38.10024 | 20.51960 | 40021 ft | 437 kts | 312° |
| 2026-05-08 15:03 | 38.14475 | 20.46692 | 40033 ft | 435 kts | 310° |
| 2026-05-08 15:04 | 38.18743 | 20.41308 | 40021 ft | 434 kts | 310° |
| 2026-05-08 15:04 | 38.23031 | 20.35869 | 40031 ft | 434 kts | 310° |
| 2026-05-08 15:05 | 38.27343 | 20.30445 | 40009 ft | 436 kts | 310° |
| 2026-05-08 15:05 | 38.31646 | 20.25050 | 40005 ft | 436 kts | 310° |
| 2026-05-08 15:06 | 38.35976 | 20.19633 | 39995 ft | 436 kts | 310° |
| 2026-05-08 15:06 | 38.40302 | 20.14194 | 39993 ft | 436 kts | 310° |
| 2026-05-08 15:07 | 38.44628 | 20.08754 | 39996 ft | 436 kts | 310° |
| 2026-05-08 15:07 | 38.48918 | 20.03334 | 39993 ft | 436 kts | 310° |
| 2026-05-08 15:08 | 38.53231 | 19.97873 | 39995 ft | 437 kts | 310° |
| 2026-05-08 15:08 | 38.57546 | 19.92403 | 39985 ft | 439 kts | 310° |
| 2026-05-08 15:09 | 38.61884 | 19.86901 | 39985 ft | 439 kts | 310° |
| 2026-05-08 15:09 | 38.66227 | 19.81382 | 39985 ft | 439 kts | 310° |
| 2026-05-08 15:10 | 38.70530 | 19.75904 | 39985 ft | 438 kts | 310° |
| 2026-05-08 15:10 | 38.74858 | 19.70383 | 39985 ft | 437 kts | 310° |
| 2026-05-08 15:11 | 38.79143 | 19.64907 | 40001 ft | 437 kts | 310° |
| 2026-05-08 15:11 | 38.83464 | 19.59374 | 39976 ft | 438 kts | 310° |
| 2026-05-08 15:12 | 38.87751 | 19.53874 | 39976 ft | 438 kts | 310° |
| 2026-05-08 15:12 | 38.92071 | 19.48323 | 39974 ft | 438 kts | 310° |
| 2026-05-08 15:13 | 38.96387 | 19.42768 | 39972 ft | 437 kts | 310° |
| 2026-05-08 15:13 | 39.00648 | 19.37274 | 39968 ft | 436 kts | 310° |
| 2026-05-08 15:14 | 39.04939 | 19.31730 | 39966 ft | 436 kts | 310° |
| 2026-05-08 15:14 | 39.09222 | 19.26185 | 39966 ft | 436 kts | 310° |
| 2026-05-08 15:15 | 39.13467 | 19.20680 | 39966 ft | 436 kts | 310° |
| 2026-05-08 15:15 | 39.17742 | 19.15127 | 39966 ft | 436 kts | 310° |
| 2026-05-08 15:16 | 39.21995 | 19.09592 | 39970 ft | 435 kts | 310° |
| 2026-05-08 15:16 | 39.26267 | 19.04024 | 39968 ft | 434 kts | 310° |
| 2026-05-08 15:17 | 39.30501 | 18.98485 | 39968 ft | 433 kts | 309° |
| 2026-05-08 15:17 | 39.34555 | 18.92794 | 39980 ft | 432 kts | 307° |
| 2026-05-08 15:18 | 39.38574 | 18.86951 | 39969 ft | 433 kts | 307° |
| 2026-05-08 15:18 | 39.42584 | 18.81175 | 39966 ft | 434 kts | 308° |
| 2026-05-08 15:19 | 39.46640 | 18.75374 | 39968 ft | 434 kts | 308° |
| 2026-05-08 15:19 | 39.50674 | 18.69609 | 39963 ft | 433 kts | 308° |
| 2026-05-08 15:20 | 39.54722 | 18.63812 | 39963 ft | 433 kts | 308° |
| 2026-05-08 15:20 | 39.58764 | 18.58008 | 39963 ft | 433 kts | 308° |
| 2026-05-08 15:21 | 39.62780 | 18.52232 | 39965 ft | 433 kts | 308° |
| 2026-05-08 15:21 | 39.66814 | 18.46416 | 39962 ft | 434 kts | 308° |
| 2026-05-08 15:22 | 39.70832 | 18.40614 | 39966 ft | 434 kts | 308° |
| 2026-05-08 15:22 | 39.74885 | 18.34752 | 39962 ft | 434 kts | 308° |
| 2026-05-08 15:23 | 39.78901 | 18.28931 | 39960 ft | 434 kts | 307° |
| 2026-05-08 15:23 | 39.82943 | 18.23061 | 39957 ft | 434 kts | 307° |
| 2026-05-08 15:24 | 39.86973 | 18.17199 | 39960 ft | 434 kts | 307° |
| 2026-05-08 15:24 | 39.90979 | 18.11359 | 39966 ft | 434 kts | 307° |
| 2026-05-08 15:25 | 39.95013 | 18.05467 | 39955 ft | 435 kts | 307° |
| 2026-05-08 15:25 | 39.99046 | 17.99564 | 39954 ft | 435 kts | 307° |
| 2026-05-08 15:26 | 40.03074 | 17.93659 | 39953 ft | 436 kts | 307° |
| 2026-05-08 15:26 | 40.07087 | 17.87765 | 39954 ft | 436 kts | 307° |
| 2026-05-08 15:27 | 40.11122 | 17.81827 | 39945 ft | 436 kts | 307° |
| 2026-05-08 15:27 | 40.15118 | 17.75934 | 39943 ft | 436 kts | 307° |
| 2026-05-08 15:28 | 40.19145 | 17.69983 | 39964 ft | 436 kts | 307° |
| 2026-05-08 15:28 | 40.23147 | 17.64058 | 39944 ft | 437 kts | 307° |
| 2026-05-08 15:29 | 40.27186 | 17.58068 | 39936 ft | 437 kts | 307° |
| 2026-05-08 15:29 | 40.31210 | 17.52089 | 39929 ft | 437 kts | 307° |
| 2026-05-08 15:30 | 40.35209 | 17.46134 | 39923 ft | 437 kts | 307° |
| 2026-05-08 15:30 | 40.39223 | 17.40146 | 39916 ft | 437 kts | 307° |
| 2026-05-08 15:31 | 40.43209 | 17.34188 | 39911 ft | 436 kts | 307° |
| 2026-05-08 15:31 | 40.47214 | 17.28189 | 39922 ft | 435 kts | 307° |
| 2026-05-08 15:32 | 40.51211 | 17.22189 | 39923 ft | 437 kts | 307° |
| 2026-05-08 15:32 | 40.55196 | 17.16196 | 39930 ft | 437 kts | 307° |
| 2026-05-08 15:33 | 40.59196 | 17.10171 | 39968 ft | 437 kts | 307° |
| 2026-05-08 15:33 | 40.63205 | 17.04119 | 39969 ft | 437 kts | 307° |
| 2026-05-08 15:34 | 40.67177 | 16.98112 | 39966 ft | 437 kts | 307° |
| 2026-05-08 15:34 | 40.71176 | 16.92051 | 39962 ft | 436 kts | 307° |
| 2026-05-08 15:35 | 40.75134 | 16.86039 | 39973 ft | 437 kts | 307° |
| 2026-05-08 15:35 | 40.79125 | 16.79964 | 39988 ft | 439 kts | 307° |
| 2026-05-08 15:36 | 40.82454 | 16.74889 | 40006 ft | 439 kts | 307° |
| 2026-05-08 15:36 | 40.87124 | 16.67758 | 40012 ft | 439 kts | 307° |
| 2026-05-08 15:37 | 40.91095 | 16.61680 | 40021 ft | 438 kts | 307° |
| 2026-05-08 15:37 | 40.95078 | 16.55570 | 40020 ft | 438 kts | 307° |
| 2026-05-08 15:38 | 40.99027 | 16.49498 | 40020 ft | 437 kts | 306° |
| 2026-05-08 15:38 | 41.03021 | 16.43347 | 40023 ft | 438 kts | 307° |
| 2026-05-08 15:39 | 41.06989 | 16.37222 | 40018 ft | 440 kts | 307° |
| 2026-05-08 15:39 | 41.10968 | 16.31071 | 40017 ft | 440 kts | 306° |
| 2026-05-08 15:40 | 41.14944 | 16.24911 | 40014 ft | 439 kts | 306° |
| 2026-05-08 15:40 | 41.18910 | 16.18751 | 40018 ft | 439 kts | 306° |
| 2026-05-08 15:41 | 41.22850 | 16.12621 | 40022 ft | 439 kts | 306° |
| 2026-05-08 15:41 | 41.26822 | 16.06429 | 40031 ft | 440 kts | 306° |
| 2026-05-08 15:42 | 41.30793 | 16.00224 | 40026 ft | 441 kts | 306° |
| 2026-05-08 15:42 | 41.34777 | 15.93988 | 40027 ft | 441 kts | 306° |
| 2026-05-08 15:43 | 41.38740 | 15.87771 | 40040 ft | 441 kts | 306° |
| 2026-05-08 15:43 | 41.42680 | 15.81578 | 40043 ft | 440 kts | 306° |
| 2026-05-08 15:44 | 41.46641 | 15.75338 | 40048 ft | 441 kts | 306° |
| 2026-05-08 15:44 | 41.50608 | 15.69076 | 40045 ft | 440 kts | 306° |
| 2026-05-08 15:45 | 41.54563 | 15.62819 | 40069 ft | 441 kts | 306° |
| 2026-05-08 15:45 | 41.58503 | 15.56573 | 40049 ft | 442 kts | 306° |
| 2026-05-08 15:46 | 41.62443 | 15.50315 | 40046 ft | 442 kts | 306° |
| 2026-05-08 15:46 | 41.66413 | 15.43997 | 40045 ft | 442 kts | 306° |
| 2026-05-08 15:47 | 41.70366 | 15.37693 | 40043 ft | 442 kts | 306° |
| 2026-05-08 15:47 | 41.74301 | 15.31404 | 40039 ft | 442 kts | 306° |
| 2026-05-08 15:48 | 41.80228 | 15.21904 | 40038 ft | 442 kts | 306° |
| 2026-05-08 15:49 | 41.83515 | 15.16623 | 40031 ft | 442 kts | 306° |
| 2026-05-08 15:49 | 41.88115 | 15.09218 | 40029 ft | 442 kts | 306° |
| 2026-05-08 15:50 | 41.92030 | 15.02900 | 40031 ft | 442 kts | 306° |
| 2026-05-08 15:50 | 41.95971 | 14.96528 | 40031 ft | 442 kts | 306° |
| 2026-05-08 15:51 | 41.99238 | 14.91235 | 40029 ft | 442 kts | 306° |
| 2026-05-08 15:51 | 42.03175 | 14.84842 | 40026 ft | 443 kts | 306° |
| 2026-05-08 15:52 | 42.07085 | 14.78481 | 40033 ft | 443 kts | 306° |
| 2026-05-08 15:52 | 42.11028 | 14.72053 | 40023 ft | 444 kts | 305° |
| 2026-05-08 15:53 | 42.14933 | 14.65672 | 40023 ft | 444 kts | 305° |
| 2026-05-08 15:53 | 42.18867 | 14.59230 | 40020 ft | 444 kts | 305° |
| 2026-05-08 15:54 | 42.22795 | 14.52785 | 40020 ft | 444 kts | 305° |
| 2026-05-08 15:54 | 42.26699 | 14.46366 | 40022 ft | 444 kts | 305° |
| 2026-05-08 15:55 | 42.30614 | 14.39913 | 40020 ft | 444 kts | 305° |
| 2026-05-08 15:55 | 42.36478 | 14.30222 | 40021 ft | 446 kts | 305° |
| 2026-05-08 15:56 | 42.40400 | 14.23723 | 40021 ft | 446 kts | 305° |
| 2026-05-08 15:56 | 42.44298 | 14.17249 | 40023 ft | 446 kts | 305° |
| 2026-05-08 15:57 | 42.47964 | 14.10498 | 40021 ft | 444 kts | 301° |
| 2026-05-08 15:57 | 42.51474 | 14.03587 | 40027 ft | 444 kts | 301° |
| 2026-05-08 15:58 | 42.55011 | 13.96709 | 40025 ft | 444 kts | 302° |
| 2026-05-08 15:58 | 42.58556 | 13.89907 | 40037 ft | 445 kts | 302° |
| 2026-05-08 15:59 | 42.62150 | 13.83032 | 40025 ft | 445 kts | 302° |
| 2026-05-08 15:59 | 42.65716 | 13.76189 | 40029 ft | 447 kts | 302° |
| 2026-05-08 16:00 | 42.69313 | 13.69270 | 40027 ft | 447 kts | 302° |
| 2026-05-08 16:00 | 42.72878 | 13.62394 | 40028 ft | 447 kts | 302° |
| 2026-05-08 16:01 | 42.76467 | 13.55451 | 40028 ft | 447 kts | 301° |
| 2026-05-08 16:01 | 42.80032 | 13.48542 | 40027 ft | 447 kts | 301° |
| 2026-05-08 16:02 | 42.83607 | 13.41600 | 40026 ft | 447 kts | 301° |
| 2026-05-08 16:02 | 42.87166 | 13.34668 | 40021 ft | 449 kts | 301° |
| 2026-05-08 16:03 | 42.90756 | 13.27663 | 40019 ft | 450 kts | 301° |
| 2026-05-08 16:03 | 42.94323 | 13.20686 | 40021 ft | 450 kts | 301° |
| 2026-05-08 16:04 | 42.97907 | 13.13659 | 40021 ft | 450 kts | 301° |
| 2026-05-08 16:04 | 43.01479 | 13.06638 | 40020 ft | 450 kts | 301° |
| 2026-05-08 16:05 | 43.05029 | 12.99644 | 40015 ft | 450 kts | 301° |
| 2026-05-08 16:05 | 43.08606 | 12.92580 | 40020 ft | 450 kts | 301° |
| 2026-05-08 16:06 | 43.12167 | 12.85532 | 40030 ft | 451 kts | 301° |
| 2026-05-08 16:06 | 43.15733 | 12.78457 | 40033 ft | 451 kts | 301° |
| 2026-05-08 16:07 | 43.19306 | 12.71350 | 40035 ft | 451 kts | 301° |
| 2026-05-08 16:07 | 43.22847 | 12.64291 | 40038 ft | 452 kts | 301° |
| 2026-05-08 16:08 | 43.26404 | 12.57181 | 40039 ft | 452 kts | 301° |
| 2026-05-08 16:08 | 43.29937 | 12.50102 | 40038 ft | 452 kts | 301° |
| 2026-05-08 16:09 | 43.33495 | 12.42957 | 40034 ft | 452 kts | 301° |
| 2026-05-08 16:09 | 43.37024 | 12.35852 | 40033 ft | 452 kts | 301° |
| 2026-05-08 16:10 | 43.40585 | 12.28667 | 40030 ft | 453 kts | 301° |
| 2026-05-08 16:10 | 43.44110 | 12.21536 | 40028 ft | 453 kts | 300° |
| 2026-05-08 16:11 | 43.47665 | 12.14328 | 40026 ft | 454 kts | 301° |
| 2026-05-08 16:11 | 43.51213 | 12.07116 | 40031 ft | 453 kts | 300° |
| 2026-05-08 16:12 | 43.54722 | 11.99965 | 40033 ft | 453 kts | 300° |
| 2026-05-08 16:12 | 43.58257 | 11.92743 | 40032 ft | 454 kts | 300° |
| 2026-05-08 16:13 | 43.61794 | 11.85502 | 40034 ft | 454 kts | 300° |
| 2026-05-08 16:13 | 43.65302 | 11.78300 | 40035 ft | 454 kts | 300° |
| 2026-05-08 16:14 | 43.68836 | 11.71029 | 40012 ft | 454 kts | 300° |
| 2026-05-08 16:14 | 43.72358 | 11.63764 | 40027 ft | 454 kts | 300° |
| 2026-05-08 16:15 | 43.75861 | 11.56517 | 40017 ft | 455 kts | 300° |
| 2026-05-08 16:15 | 43.79377 | 11.49226 | 40033 ft | 455 kts | 300° |
| 2026-05-08 16:16 | 43.82876 | 11.41954 | 40033 ft | 455 kts | 300° |
| 2026-05-08 16:16 | 43.86388 | 11.34638 | 40028 ft | 455 kts | 300° |
| 2026-05-08 16:17 | 43.89311 | 11.28533 | 40028 ft | 456 kts | 300° |
| 2026-05-08 16:17 | 43.93382 | 11.20008 | 40001 ft | 456 kts | 300° |
| 2026-05-08 16:18 | 43.96895 | 11.12636 | 40011 ft | 457 kts | 300° |
| 2026-05-08 16:18 | 44.00381 | 11.05298 | 40038 ft | 456 kts | 300° |
| 2026-05-08 16:19 | 44.03875 | 10.97951 | 40064 ft | 457 kts | 301° |
| 2026-05-08 16:19 | 44.07550 | 10.90753 | 40086 ft | 458 kts | 303° |
| 2026-05-08 16:20 | 44.11305 | 10.83577 | 40140 ft | 458 kts | 302° |
| 2026-05-08 16:20 | 44.15035 | 10.76354 | 40133 ft | 459 kts | 302° |
| 2026-05-08 16:21 | 44.18710 | 10.69160 | 40143 ft | 459 kts | 302° |
| 2026-05-08 16:21 | 44.22412 | 10.61880 | 40154 ft | 459 kts | 302° |
| 2026-05-08 16:22 | 44.26084 | 10.54642 | 40141 ft | 459 kts | 302° |
| 2026-05-08 16:22 | 44.29776 | 10.47352 | 40138 ft | 459 kts | 302° |
| 2026-05-08 16:23 | 44.33460 | 10.40059 | 40113 ft | 459 kts | 302° |
| 2026-05-08 16:23 | 44.37123 | 10.32788 | 40113 ft | 459 kts | 302° |
| 2026-05-08 16:24 | 44.40770 | 10.25532 | 40091 ft | 459 kts | 302° |
| 2026-05-08 16:24 | 44.44440 | 10.18211 | 40091 ft | 459 kts | 302° |
| 2026-05-08 16:25 | 44.48118 | 10.10857 | 40064 ft | 460 kts | 302° |
| 2026-05-08 16:25 | 44.51763 | 10.03549 | 40064 ft | 460 kts | 302° |
| 2026-05-08 16:26 | 44.55436 | 9.96168 | 40038 ft | 460 kts | 302° |
| 2026-05-08 16:26 | 44.59069 | 9.88848 | 40042 ft | 461 kts | 301° |
| 2026-05-08 16:27 | 44.62739 | 9.81429 | 40026 ft | 462 kts | 302° |
| 2026-05-08 16:27 | 44.66401 | 9.74013 | 40028 ft | 463 kts | 301° |
| 2026-05-08 16:28 | 44.70078 | 9.66546 | 40022 ft | 463 kts | 301° |
| 2026-05-08 16:28 | 44.73725 | 9.59123 | 40022 ft | 463 kts | 301° |
| 2026-05-08 16:29 | 44.77384 | 9.51654 | 40034 ft | 463 kts | 301° |
| 2026-05-08 16:29 | 44.81027 | 9.44197 | 40028 ft | 463 kts | 301° |
| 2026-05-08 16:30 | 44.84673 | 9.36717 | 40033 ft | 463 kts | 301° |
| 2026-05-08 16:30 | 44.88324 | 9.29205 | 40030 ft | 463 kts | 301° |
| 2026-05-08 16:31 | 44.91942 | 9.21744 | 40030 ft | 463 kts | 301° |
| 2026-05-08 16:31 | 44.95583 | 9.14214 | 40031 ft | 462 kts | 301° |
| 2026-05-08 16:32 | 44.99205 | 9.06706 | 40029 ft | 462 kts | 301° |
| 2026-05-08 16:32 | 45.02806 | 8.99218 | 40046 ft | 462 kts | 301° |
| 2026-05-08 16:33 | 45.06424 | 8.91676 | 40051 ft | 463 kts | 301° |
| 2026-05-08 16:33 | 45.10020 | 8.84160 | 40048 ft | 464 kts | 301° |
| 2026-05-08 16:34 | 45.13642 | 8.76572 | 40046 ft | 463 kts | 301° |
| 2026-05-08 16:34 | 45.17242 | 8.69010 | 40049 ft | 462 kts | 301° |
| 2026-05-08 16:35 | 45.20836 | 8.61437 | 40003 ft | 462 kts | 301° |
| 2026-05-08 16:35 | 45.24396 | 8.53918 | 40003 ft | 462 kts | 301° |
| 2026-05-08 16:36 | 45.27985 | 8.46318 | 40010 ft | 462 kts | 301° |
| 2026-05-08 16:36 | 45.30956 | 8.40011 | 40061 ft | 462 kts | 301° |
| 2026-05-08 16:37 | 45.34528 | 8.32408 | 40067 ft | 462 kts | 301° |
| 2026-05-08 16:37 | 45.38064 | 8.24864 | 40067 ft | 462 kts | 301° |
| 2026-05-08 16:38 | 45.41632 | 8.17231 | 40062 ft | 462 kts | 301° |
| 2026-05-08 16:38 | 45.45178 | 8.09623 | 40070 ft | 463 kts | 301° |
| 2026-05-08 16:39 | 45.48747 | 8.01945 | 40052 ft | 464 kts | 301° |
| 2026-05-08 16:39 | 45.52297 | 7.94288 | 40070 ft | 464 kts | 301° |
| 2026-05-08 16:40 | 45.55839 | 7.86630 | 40066 ft | 463 kts | 301° |
| 2026-05-08 16:40 | 45.59389 | 7.78930 | 40077 ft | 463 kts | 301° |
| 2026-05-08 16:41 | 45.62921 | 7.71248 | 40052 ft | 462 kts | 301° |
| 2026-05-08 16:42 | 45.68215 | 7.59696 | 40081 ft | 463 kts | 301° |
| 2026-05-08 16:42 | 45.71712 | 7.52048 | 40077 ft | 462 kts | 301° |
| 2026-05-08 16:43 | 45.75231 | 7.44324 | 40021 ft | 462 kts | 301° |
| 2026-05-08 16:43 | 45.78890 | 7.36765 | 40015 ft | 463 kts | 308° |
| 2026-05-08 16:44 | 45.83646 | 7.30559 | 40019 ft | 467 kts | 320° |
| 2026-05-08 16:44 | 45.88934 | 7.25063 | 40034 ft | 469 kts | 322° |
| 2026-05-08 16:45 | 45.94288 | 7.19661 | 40042 ft | 469 kts | 322° |
| 2026-05-08 16:45 | 45.99457 | 7.14425 | 40008 ft | 470 kts | 321° |
| 2026-05-08 16:46 | 46.04736 | 7.09025 | 39995 ft | 466 kts | 321° |
| 2026-05-08 16:46 | 46.10001 | 7.03610 | 39992 ft | 465 kts | 321° |
| 2026-05-08 16:47 | 46.15232 | 6.98224 | 39990 ft | 466 kts | 321° |
| 2026-05-08 16:47 | 46.20484 | 6.92807 | 40008 ft | 466 kts | 321° |
| 2026-05-08 16:48 | 46.25767 | 6.87342 | 40005 ft | 466 kts | 321° |
| 2026-05-08 16:48 | 46.31037 | 6.81869 | 40010 ft | 465 kts | 321° |
| 2026-05-08 16:49 | 46.36266 | 6.76435 | 40012 ft | 466 kts | 321° |
| 2026-05-08 16:49 | 46.41503 | 6.70853 | 39996 ft | 465 kts | 317° |
| 2026-05-08 16:50 | 46.45831 | 6.63977 | 39997 ft | 460 kts | 301° |
| 2026-05-08 16:50 | 46.49161 | 6.56122 | 39990 ft | 459 kts | 298° |
| 2026-05-08 16:51 | 46.52327 | 6.48055 | 39983 ft | 459 kts | 297° |
| 2026-05-08 16:51 | 46.55470 | 6.39963 | 39989 ft | 459 kts | 298° |
| 2026-05-08 16:52 | 46.58602 | 6.31940 | 39992 ft | 459 kts | 298° |
| 2026-05-08 16:52 | 46.61762 | 6.23859 | 39997 ft | 458 kts | 298° |
| 2026-05-08 16:53 | 46.66493 | 6.11729 | 39995 ft | 458 kts | 298° |
| 2026-05-08 16:53 | 46.69624 | 6.03670 | 40003 ft | 458 kts | 298° |
| 2026-05-08 16:54 | 46.72761 | 5.95569 | 39996 ft | 458 kts | 298° |
| 2026-05-08 16:54 | 46.75869 | 5.87519 | 39991 ft | 458 kts | 297° |
| 2026-05-08 16:55 | 46.79030 | 5.79451 | 39989 ft | 459 kts | 301° |
| 2026-05-08 16:55 | 46.83171 | 5.72321 | 40004 ft | 463 kts | 316° |
| 2026-05-08 16:56 | 46.88545 | 5.67022 | 39989 ft | 467 kts | 327° |
| 2026-05-08 16:56 | 46.94224 | 5.62419 | 39987 ft | 468 kts | 328° |
| 2026-05-08 16:57 | 46.99968 | 5.57883 | 39994 ft | 468 kts | 328° |
| 2026-05-08 16:57 | 47.05668 | 5.53332 | 40000 ft | 468 kts | 328° |
| 2026-05-08 16:58 | 47.11368 | 5.48734 | 39709 ft | 467 kts | 328° |
| 2026-05-08 16:58 | 47.14231 | 5.46413 | 39472 ft | 467 kts | 328° |
| 2026-05-08 16:58 | 47.17040 | 5.44133 | 39242 ft | 467 kts | 328° |
| 2026-05-08 16:59 | 47.19884 | 5.41822 | 39047 ft | 466 kts | 328° |
| 2026-05-08 16:59 | 47.22721 | 5.39514 | 38819 ft | 465 kts | 328° |
| 2026-05-08 16:59 | 47.25554 | 5.37207 | 38569 ft | 464 kts | 328° |
| 2026-05-08 16:59 | 47.28372 | 5.34911 | 38177 ft | 461 kts | 328° |
| 2026-05-08 17:00 | 47.31166 | 5.32636 | 37550 ft | 457 kts | 328° |
| 2026-05-08 17:00 | 47.33923 | 5.30385 | 36889 ft | 456 kts | 328° |
| 2026-05-08 17:00 | 47.36699 | 5.28114 | 36217 ft | 455 kts | 327° |
| 2026-05-08 17:00 | 47.39469 | 5.25845 | 35516 ft | 454 kts | 327° |
| 2026-05-08 17:01 | 47.42225 | 5.23586 | 34815 ft | 454 kts | 327° |
| 2026-05-08 17:01 | 47.44991 | 5.21316 | 33998 ft | 455 kts | 327° |
| 2026-05-08 17:01 | 47.47768 | 5.19034 | 33114 ft | 456 kts | 327° |
| 2026-05-08 17:01 | 47.50547 | 5.16749 | 32238 ft | 456 kts | 327° |
| 2026-05-08 17:02 | 47.53317 | 5.14469 | 31361 ft | 455 kts | 327° |
| 2026-05-08 17:02 | 47.56065 | 5.12205 | 30474 ft | 449 kts | 327° |
| 2026-05-08 17:02 | 47.58688 | 5.09857 | 29577 ft | 429 kts | 322° |
| 2026-05-08 17:02 | 47.60937 | 5.07270 | 29368 ft | 399 kts | 317° |
| 2026-05-08 17:03 | 47.63006 | 5.04719 | 29215 ft | 382 kts | 317° |
| 2026-05-08 17:03 | 47.65065 | 5.02140 | 29103 ft | 390 kts | 317° |
| 2026-05-08 17:03 | 47.67116 | 4.99569 | 28975 ft | 379 kts | 317° |
| 2026-05-08 17:03 | 47.69103 | 4.97077 | 28807 ft | 367 kts | 317° |
| 2026-05-08 17:04 | 47.71004 | 4.94688 | 28557 ft | 359 kts | 316° |
| 2026-05-08 17:04 | 47.72910 | 4.92287 | 28139 ft | 357 kts | 316° |
| 2026-05-08 17:04 | 47.74806 | 4.89897 | 27760 ft | 362 kts | 316° |
| 2026-05-08 17:04 | 47.76767 | 4.87408 | 27578 ft | 376 kts | 316° |
| 2026-05-08 17:05 | 47.78772 | 4.84862 | 27356 ft | 375 kts | 316° |
| 2026-05-08 17:05 | 47.80757 | 4.82344 | 26722 ft | 376 kts | 316° |
| 2026-05-08 17:05 | 47.82721 | 4.79849 | 26273 ft | 376 kts | 316° |
| 2026-05-08 17:05 | 47.84713 | 4.77314 | 25879 ft | 376 kts | 316° |
| 2026-05-08 17:06 | 47.86699 | 4.74787 | 25510 ft | 374 kts | 316° |
| 2026-05-08 17:06 | 47.88679 | 4.72265 | 25131 ft | 373 kts | 316° |
| 2026-05-08 17:06 | 47.90651 | 4.69750 | 24768 ft | 372 kts | 316° |
| 2026-05-08 17:06 | 47.92617 | 4.67239 | 24514 ft | 379 kts | 316° |
| 2026-05-08 17:07 | 47.94613 | 4.64686 | 24100 ft | 370 kts | 316° |
| 2026-05-08 17:07 | 47.96527 | 4.62242 | 23671 ft | 365 kts | 316° |
| 2026-05-08 17:07 | 47.98463 | 4.59760 | 23291 ft | 366 kts | 316° |
| 2026-05-08 17:07 | 48.00385 | 4.57296 | 22861 ft | 363 kts | 316° |
| 2026-05-08 17:08 | 48.02305 | 4.54831 | 22488 ft | 362 kts | 316° |
| 2026-05-08 17:08 | 48.04225 | 4.52366 | 22128 ft | 361 kts | 316° |
| 2026-05-08 17:08 | 48.06109 | 4.49942 | 21770 ft | 361 kts | 316° |
| 2026-05-08 17:08 | 48.08014 | 4.47489 | 21407 ft | 360 kts | 316° |
| 2026-05-08 17:09 | 48.09908 | 4.45047 | 21049 ft | 359 kts | 316° |
| 2026-05-08 17:09 | 48.11780 | 4.42633 | 20689 ft | 359 kts | 316° |
| 2026-05-08 17:09 | 48.13677 | 4.40201 | 20329 ft | 358 kts | 316° |
| 2026-05-08 17:09 | 48.15572 | 4.37752 | 19978 ft | 359 kts | 316° |
| 2026-05-08 17:10 | 48.17459 | 4.35302 | 19617 ft | 359 kts | 316° |
| 2026-05-08 17:10 | 48.19354 | 4.32843 | 19244 ft | 359 kts | 316° |
| 2026-05-08 17:10 | 48.21242 | 4.30394 | 18891 ft | 358 kts | 316° |
| 2026-05-08 17:10 | 48.23107 | 4.27972 | 18546 ft | 357 kts | 316° |
| 2026-05-08 17:11 | 48.24970 | 4.25552 | 18281 ft | 350 kts | 316° |
| 2026-05-08 17:11 | 48.26687 | 4.23045 | 18031 ft | 337 kts | 308° |
| 2026-05-08 17:11 | 48.28198 | 4.20434 | 17755 ft | 325 kts | 306° |
| 2026-05-08 17:11 | 48.29613 | 4.17833 | 17410 ft | 319 kts | 306° |
| 2026-05-08 17:12 | 48.31000 | 4.15273 | 17092 ft | 313 kts | 306° |
| 2026-05-08 17:12 | 48.32373 | 4.12747 | 16753 ft | 310 kts | 306° |
| 2026-05-08 17:12 | 48.33715 | 4.10285 | 16473 ft | 308 kts | 306° |
| 2026-05-08 17:12 | 48.35071 | 4.07800 | 16150 ft | 307 kts | 307° |
| 2026-05-08 17:13 | 48.36427 | 4.05334 | 16028 ft | 305 kts | 307° |
| 2026-05-08 17:13 | 48.37781 | 4.02848 | 16020 ft | 308 kts | 307° |
| 2026-05-08 17:13 | 48.39145 | 4.00346 | 16019 ft | 308 kts | 307° |
| 2026-05-08 17:13 | 48.40499 | 3.97863 | 16017 ft | 307 kts | 307° |
| 2026-05-08 17:14 | 48.41859 | 3.95366 | 16016 ft | 307 kts | 307° |
| 2026-05-08 17:14 | 48.43200 | 3.92905 | 16014 ft | 307 kts | 307° |
| 2026-05-08 17:14 | 48.44553 | 3.90419 | 16013 ft | 307 kts | 307° |
| 2026-05-08 17:14 | 48.45911 | 3.87922 | 16013 ft | 308 kts | 307° |
| 2026-05-08 17:15 | 48.47268 | 3.85424 | 16014 ft | 307 kts | 307° |
| 2026-05-08 17:15 | 48.48628 | 3.82918 | 16012 ft | 307 kts | 307° |
| 2026-05-08 17:15 | 48.49983 | 3.80421 | 16012 ft | 307 kts | 307° |
| 2026-05-08 17:15 | 48.51322 | 3.77950 | 16015 ft | 307 kts | 307° |
| 2026-05-08 17:16 | 48.52675 | 3.75450 | 16014 ft | 307 kts | 307° |
| 2026-05-08 17:16 | 48.53993 | 3.72906 | 16014 ft | 306 kts | 303° |
| 2026-05-08 17:16 | 48.55174 | 3.70253 | 16013 ft | 306 kts | 301° |
| 2026-05-08 17:16 | 48.56333 | 3.67554 | 16013 ft | 306 kts | 301° |
| 2026-05-08 17:17 | 48.57490 | 3.64855 | 16012 ft | 306 kts | 301° |
| 2026-05-08 17:17 | 48.58645 | 3.62163 | 16013 ft | 306 kts | 301° |
| 2026-05-08 17:17 | 48.59807 | 3.59455 | 16019 ft | 306 kts | 301° |
| 2026-05-08 17:17 | 48.60950 | 3.56787 | 16020 ft | 307 kts | 301° |
| 2026-05-08 17:18 | 48.62117 | 3.54074 | 15951 ft | 307 kts | 301° |
| 2026-05-08 17:18 | 48.63278 | 3.51364 | 15878 ft | 307 kts | 301° |
| 2026-05-08 17:18 | 48.64447 | 3.48625 | 15746 ft | 320 kts | 301° |
| 2026-05-08 17:18 | 48.65723 | 3.45625 | 15698 ft | 353 kts | 301° |
| 2026-05-08 17:19 | 48.67094 | 3.42408 | 15662 ft | 381 kts | 301° |
| 2026-05-08 17:19 | 48.68551 | 3.38992 | 15585 ft | 389 kts | 301° |
| 2026-05-08 17:19 | 48.70025 | 3.35538 | 15335 ft | 390 kts | 301° |
| 2026-05-08 17:19 | 48.71495 | 3.32089 | 15096 ft | 389 kts | 301° |
| 2026-05-08 17:20 | 48.72959 | 3.28645 | 14852 ft | 388 kts | 301° |
| 2026-05-08 17:20 | 48.73924 | 3.26373 | 14691 ft | 387 kts | 301° |
| 2026-05-08 17:20 | 48.75871 | 3.21779 | 14366 ft | 386 kts | 301° |
| 2026-05-08 17:20 | 48.77307 | 3.18386 | 14134 ft | 385 kts | 301° |
| 2026-05-08 17:21 | 48.78755 | 3.14960 | 13900 ft | 384 kts | 301° |
| 2026-05-08 17:21 | 48.80193 | 3.11551 | 13627 ft | 383 kts | 301° |
| 2026-05-08 17:21 | 48.81521 | 3.08061 | 13375 ft | 381 kts | 296° |
| 2026-05-08 17:21 | 48.82825 | 3.04562 | 13138 ft | 381 kts | 301° |
| 2026-05-08 17:22 | 48.84437 | 3.01415 | 12844 ft | 381 kts | 311° |
| 2026-05-08 17:22 | 48.86273 | 2.98566 | 12518 ft | 379 kts | 313° |
| 2026-05-08 17:22 | 48.88130 | 2.95711 | 12222 ft | 378 kts | 312° |
| 2026-05-08 17:22 | 48.89339 | 2.93813 | 12037 ft | 376 kts | 312° |
| 2026-05-08 17:23 | 48.91077 | 2.90855 | 11775 ft | 374 kts | 308° |
| 2026-05-08 17:23 | 48.93301 | 2.86876 | 11318 ft | 367 kts | 308° |
| 2026-05-08 17:23 | 48.94947 | 2.84010 | 11103 ft | 352 kts | 311° |
| 2026-05-08 17:23 | 48.96046 | 2.82268 | 11020 ft | 340 kts | 312° |
| 2026-05-08 17:24 | 48.97670 | 2.79751 | 10898 ft | 324 kts | 312° |
| 2026-05-08 17:24 | 48.99202 | 2.77366 | 10764 ft | 309 kts | 311° |
| 2026-05-08 17:24 | 49.00669 | 2.75067 | 10636 ft | 295 kts | 311° |
| 2026-05-08 17:24 | 49.02059 | 2.72879 | 10507 ft | 282 kts | 311° |
| 2026-05-08 17:25 | 49.03398 | 2.70767 | 10376 ft | 270 kts | 311° |
| 2026-05-08 17:25 | 49.04690 | 2.68721 | 10191 ft | 266 kts | 311° |
| 2026-05-08 17:25 | 49.05973 | 2.66685 | 9890 ft | 271 kts | 311° |
| 2026-05-08 17:25 | 49.07304 | 2.64565 | 9713 ft | 285 kts | 311° |
| 2026-05-08 17:26 | 49.08663 | 2.62407 | 9357 ft | 277 kts | 312° |
| 2026-05-08 17:26 | 49.09939 | 2.60189 | 8908 ft | 280 kts | 303° |
| 2026-05-08 17:26 | 49.10702 | 2.57472 | 8561 ft | 278 kts | 278° |
| 2026-05-08 17:26 | 49.10809 | 2.54527 | 8240 ft | 276 kts | 268° |
| 2026-05-08 17:27 | 49.10747 | 2.51583 | 7905 ft | 277 kts | 267° |
| 2026-05-08 17:27 | 49.10675 | 2.48654 | 7532 ft | 276 kts | 267° |
| 2026-05-08 17:27 | 49.10609 | 2.45748 | 7079 ft | 276 kts | 267° |
| 2026-05-08 17:27 | 49.10547 | 2.42815 | 6656 ft | 278 kts | 267° |
| 2026-05-08 17:28 | 49.10488 | 2.39873 | 6188 ft | 278 kts | 268° |
| 2026-05-08 17:28 | 49.10434 | 2.36922 | 5729 ft | 277 kts | 268° |
| 2026-05-08 17:28 | 49.10390 | 2.34003 | 5273 ft | 269 kts | 268° |
| 2026-05-08 17:28 | 49.10348 | 2.31245 | 4863 ft | 256 kts | 269° |
| 2026-05-08 17:29 | 49.10306 | 2.28580 | 4438 ft | 246 kts | 269° |
| 2026-05-08 17:29 | 49.10265 | 2.26003 | 4072 ft | 240 kts | 269° |
| 2026-05-08 17:29 | 49.10225 | 2.23450 | 3968 ft | 240 kts | 269° |
| 2026-05-08 17:29 | 49.10183 | 2.20904 | 3962 ft | 241 kts | 269° |
| 2026-05-08 17:30 | 49.10142 | 2.18377 | 3961 ft | 241 kts | 269° |
| 2026-05-08 17:30 | 49.10099 | 2.15809 | 3965 ft | 241 kts | 269° |
| 2026-05-08 17:30 | 49.10056 | 2.13253 | 3973 ft | 243 kts | 269° |
| 2026-05-08 17:30 | 49.10012 | 2.10665 | 3969 ft | 243 kts | 269° |
| 2026-05-08 17:31 | 49.09748 | 2.08127 | 3964 ft | 242 kts | 251° |
| 2026-05-08 17:31 | 49.08905 | 2.05973 | 3965 ft | 240 kts | 224° |
| 2026-05-08 17:31 | 49.07478 | 2.04739 | 3962 ft | 236 kts | 191° |
| 2026-05-08 17:31 | 49.05889 | 2.04973 | 3966 ft | 230 kts | 152° |
| 2026-05-08 17:32 | 49.04751 | 2.06614 | 3968 ft | 227 kts | 120° |
| 2026-05-08 17:32 | 49.03971 | 2.08718 | 3966 ft | 229 kts | 117° |
| 2026-05-08 17:32 | 49.03192 | 2.10851 | 3965 ft | 229 kts | 118° |
| 2026-05-08 17:32 | 49.02394 | 2.12912 | 3967 ft | 229 kts | 120° |
| 2026-05-08 17:33 | 49.01558 | 2.14991 | 3967 ft | 229 kts | 120° |
| 2026-05-08 17:33 | 49.00816 | 2.17121 | 3952 ft | 228 kts | 104° |
| 2026-05-08 17:33 | 49.00662 | 2.19489 | 3968 ft | 226 kts | 86° |
| 2026-05-08 17:33 | 49.00801 | 2.21858 | 3960 ft | 227 kts | 83° |
| 2026-05-08 17:34 | 49.00955 | 2.24218 | 3952 ft | 219 kts | 84° |
| 2026-05-08 17:34 | 49.01077 | 2.26458 | 3813 ft | 210 kts | 85° |
| 2026-05-08 17:34 | 49.01187 | 2.28654 | 3543 ft | 206 kts | 85° |
| 2026-05-08 17:34 | 49.01304 | 2.30813 | 3243 ft | 203 kts | 84° |
| 2026-05-08 17:35 | 49.01419 | 2.32926 | 2951 ft | 197 kts | 84° |
| 2026-05-08 17:35 | 49.01526 | 2.34942 | 2677 ft | 183 kts | 84° |
| 2026-05-08 17:35 | 49.01626 | 2.36794 | 2440 ft | 169 kts | 84° |
| 2026-05-08 17:35 | 49.01717 | 2.38483 | 2225 ft | 154 kts | 84° |
| 2026-05-08 17:36 | 49.01801 | 2.40038 | 2029 ft | 147 kts | 84° |
| 2026-05-08 17:36 | 49.01885 | 2.41585 | 1838 ft | 146 kts | 84° |
| 2026-05-08 17:36 | 49.01966 | 2.43101 | 1650 ft | 141 kts | 85° |
| 2026-05-08 17:36 | 49.02043 | 2.44541 | 1453 ft | 131 kts | 84° |
| 2026-05-08 17:37 | 49.02116 | 2.45897 | 1293 ft | 128 kts | 84° |
| 2026-05-08 17:37 | 49.02188 | 2.47240 | 1110 ft | 129 kts | 84° |
| 2026-05-08 17:37 | 49.02261 | 2.48581 | 937 ft | 127 kts | 85° |
| 2026-05-08 17:37 | 49.02331 | 2.49895 | 757 ft | 128 kts | 83° |
| 2026-05-08 17:38 | 49.02412 | 2.51226 | 580 ft | 128 kts | 82° |
| 2026-05-08 17:38 | 49.02485 | 2.52558 | 428 ft | 126 kts | 84° |
| 2026-05-08 17:38 | 49.02540 | 2.53847 | 377 ft | 128 kts | 84° |
| 2026-05-08 17:38 | 49.02609 | 2.55127 | 369 ft | 111 kts | 83° |
| 2026-05-08 17:39 | 49.02636 | 2.55743 | 368 ft | 24 kts | 103° |
| 2026-05-08 17:39 | 49.02577 | 2.55885 | 369 ft | 0 kts | 137° |
| 2026-05-08 17:39 | 49.02576 | 2.55885 | 369 ft | 0 kts | 137° |
| 2026-05-08 17:39 | 49.02567 | 2.55897 | 369 ft | 5 kts | 140° |
| 2026-05-08 17:40 | 49.02510 | 2.55940 | 367 ft | 11 kts | 167° |
| 2026-05-08 17:40 | 49.02448 | 2.55950 | 366 ft | 0 kts | 174° |
| 2026-05-08 17:40 | 49.02439 | 2.55951 | 363 ft | 3 kts | 174° |
| 2026-05-08 17:40 | 49.02426 | 2.55953 | 368 ft | 5 kts | 174° |
| 2026-05-08 17:41 | 49.02401 | 2.55957 | 368 ft | 1 kts | 174° |
| 2026-05-08 17:41 | 49.02366 | 2.55962 | 368 ft | 9 kts | 174° |
| 2026-05-08 17:41 | 49.02322 | 2.55968 | 366 ft | 1 kts | 174° |
| 2026-05-08 17:41 | 49.02289 | 2.55973 | 366 ft | 9 kts | 174° |
| 2026-05-08 17:42 | 49.02202 | 2.55986 | 362 ft | 16 kts | 174° |
| 2026-05-08 17:42 | 49.02154 | 2.55990 | 368 ft | 3 kts | 185° |
| 2026-05-08 17:42 | 49.02116 | 2.55960 | 369 ft | 10 kts | 223° |
| 2026-05-08 17:42 | 49.02088 | 2.55840 | 366 ft | 15 kts | 259° |
| 2026-05-08 17:43 | 49.02072 | 2.55656 | 362 ft | 20 kts | 264° |
| 2026-05-08 17:43 | 49.02059 | 2.55432 | 360 ft | 23 kts | 265° |
| 2026-05-08 17:43 | 49.02045 | 2.55180 | 366 ft | 26 kts | 265° |
| 2026-05-08 17:43 | 49.02031 | 2.54929 | 367 ft | 19 kts | 256° |
| 2026-05-08 17:44 | 49.01955 | 2.54820 | 368 ft | 14 kts | 224° |
| 2026-05-08 17:44 | 49.01931 | 2.54688 | 367 ft | 14 kts | 263° |
| 2026-05-08 17:44 | 49.01921 | 2.54522 | 363 ft | 17 kts | 265° |
| 2026-05-08 17:44 | 49.01902 | 2.54359 | 368 ft | 9 kts | 231° |
| 2026-05-08 17:45 | 49.01845 | 2.54334 | 366 ft | 10 kts | 175° |
| 2026-05-08 17:45 | 49.01789 | 2.54396 | 368 ft | 11 kts | 125° |
| 2026-05-08 17:45 | 49.01747 | 2.54500 | 369 ft | 7 kts | 124° |
| 2026-05-08 17:45 | 49.01712 | 2.54573 | 369 ft | 10 kts | 129° |
| 2026-05-08 17:46 | 49.01648 | 2.54652 | 366 ft | 14 kts | 146° |
| 2026-05-08 17:46 | 49.01553 | 2.54723 | 368 ft | 17 kts | 161° |
| 2026-05-08 17:46 | 49.01455 | 2.54751 | 362 ft | 8 kts | 188° |
| 2026-05-08 17:46 | 49.01438 | 2.54692 | 369 ft | 7 kts | 269° |
| 2026-05-08 17:47 | 49.01438 | 2.54676 | 363 ft | 0 kts | 269° |
| 2026-05-08 17:47 | 49.01438 | 2.54657 | 367 ft | 6 kts | 269° |
| 2026-05-08 17:47 | 49.01437 | 2.54636 | 363 ft | 0 kts | 269° |
| 2026-05-08 17:48 | 49.01437 | 2.54632 | 361 ft | 0 kts | 270° |
| 2026-05-08 17:48 | 49.01437 | 2.54622 | 361 ft | 2 kts | 269° |
| 2026-05-08 17:48 | 49.01437 | 2.54614 | 361 ft | 0 kts | 270° |
| 2026-05-08 17:49 | 49.01428 | 2.54603 | 367 ft | 0 kts | 275° |